createdAt,value
2018-10-02T12:24:22.239Z,5.60
2018-10-02T12:26:55.030Z,6.17
2018-10-02T12:29:29.811Z,5.97
2018-10-02T12:35:09.562Z,5.60
2018-10-02T12:37:39.631Z,5.57
2018-10-02T12:40:09.823Z,5.47
2018-10-02T12:42:40.089Z,5.13
2018-10-02T12:45:10.161Z,5.07
2018-10-02T12:47:40.195Z,5.40
2018-10-02T12:50:10.264Z,5.30
2018-10-02T12:52:40.461Z,5.20
2018-10-02T12:55:10.499Z,4.73
2018-10-02T12:57:40.527Z,4.47
2018-10-02T13:00:10.588Z,4.40
2018-10-02T13:02:40.659Z,5.00
2018-10-02T13:05:10.686Z,4.83
2018-10-02T13:07:40.728Z,5.00
2018-10-02T13:10:10.820Z,5.00
2018-10-02T13:12:40.853Z,5.10
2018-10-02T13:15:10.875Z,5.03
2018-10-02T13:17:40.910Z,5.10
2018-10-02T13:20:10.935Z,5.70
2018-10-02T13:22:41.011Z,5.30
2018-10-02T13:25:11.114Z,5.17
2018-10-02T13:27:41.122Z,6.00
2018-10-02T13:30:11.157Z,5.93
2018-10-02T13:32:41.192Z,5.70
2018-10-02T13:35:13.674Z,6.10
2018-10-02T13:37:47.283Z,6.63
2018-10-02T13:40:19.124Z,6.53
2018-10-02T13:42:51.044Z,7.47
2018-10-02T13:45:22.931Z,7.17
2018-10-02T13:47:54.727Z,7.47
2018-10-02T13:50:25.139Z,7.17
2018-10-02T13:52:55.525Z,7.87
2018-10-02T13:55:25.910Z,8.40
2018-10-02T13:57:56.497Z,9.43
2018-10-02T14:00:27.013Z,9.13
2018-10-02T14:02:57.574Z,9.90
2018-10-02T14:05:27.983Z,9.83
2018-10-02T14:07:58.073Z,8.97
2018-10-02T14:10:28.093Z,10.30
2018-10-02T14:12:58.247Z,10.43
2018-10-02T14:15:28.323Z,10.37
2018-10-02T14:17:58.469Z,11.03
2018-10-02T14:20:28.520Z,10.70
2018-10-02T14:22:58.644Z,9.63
2018-10-02T14:25:28.660Z,10.90
2018-10-02T14:27:58.807Z,10.80
2018-10-02T14:30:28.843Z,10.53
2018-10-02T14:32:58.913Z,9.90
2018-10-02T14:35:28.923Z,10.33
2018-10-02T14:37:58.958Z,11.13
2018-10-02T14:40:29.004Z,11.00
2018-10-02T14:42:59.211Z,11.10
2018-10-02T14:45:29.329Z,10.80
2018-10-02T14:47:59.410Z,10.57
2018-10-02T14:50:29.485Z,9.50
2018-10-02T14:52:59.654Z,8.10
2018-10-02T14:55:29.715Z,8.43
2018-10-02T14:57:59.789Z,8.27
2018-10-02T15:00:29.888Z,8.00
2018-10-02T15:03:00.024Z,8.27
2018-10-02T15:05:30.119Z,8.83
2018-10-02T15:08:00.219Z,8.10
2018-10-02T15:10:30.274Z,7.90
2018-10-02T15:13:00.544Z,6.77
2018-10-02T15:15:30.783Z,5.33
2018-10-02T15:18:00.897Z,5.27
2018-10-02T15:20:30.904Z,4.50
2018-10-02T15:23:00.921Z,4.43
2018-10-02T15:25:30.991Z,4.43
2018-10-02T15:28:00.995Z,4.10
2018-10-02T15:30:31.043Z,4.40
2018-10-02T15:33:01.144Z,4.10
2018-10-02T15:35:31.216Z,4.80
2018-10-02T15:38:01.290Z,4.87
2018-10-02T15:40:31.317Z,5.40
2018-10-02T15:43:01.355Z,5.17
2018-10-02T15:45:31.412Z,3.73
2018-10-02T15:48:01.452Z,4.23
2018-10-02T15:50:31.629Z,3.90
2018-10-02T15:53:01.910Z,4.03
2018-10-02T15:55:31.936Z,4.23
2018-10-02T15:58:02.020Z,3.77
2018-10-02T16:00:32.017Z,3.43
2018-10-02T16:03:02.074Z,3.60
2018-10-02T16:05:32.182Z,3.47
2018-10-02T16:08:02.237Z,3.10
2018-10-02T16:10:32.251Z,3.50
2018-10-02T16:13:02.287Z,3.20
2018-10-02T16:15:32.335Z,3.10
2018-10-02T16:18:02.516Z,3.00
2018-10-02T16:20:32.550Z,2.57
2018-10-02T16:23:02.632Z,2.70
2018-10-02T16:25:33.177Z,2.53
2018-10-02T16:28:03.272Z,2.77
2018-10-02T16:30:33.340Z,2.30
2018-10-02T16:33:03.510Z,3.00
2018-10-02T16:35:33.548Z,2.73
2018-10-02T16:38:03.586Z,2.77
2018-10-02T16:40:33.707Z,2.80
2018-10-02T16:43:08.066Z,2.73
2018-10-02T16:45:38.327Z,2.57
2018-10-02T16:48:11.785Z,2.90
2018-10-02T16:50:41.913Z,2.43
2018-10-02T16:53:14.267Z,2.97
2018-10-02T16:55:45.661Z,3.13
2018-10-02T16:58:17.591Z,2.70
2018-10-02T17:00:47.656Z,2.87
2018-10-02T17:03:17.667Z,3.17
2018-10-02T17:05:47.716Z,2.57
2018-10-02T17:08:17.733Z,3.30
2018-10-02T17:10:47.779Z,3.53
2018-10-02T17:13:17.793Z,3.10
2018-10-02T17:15:47.835Z,3.43
2018-10-02T17:18:18.096Z,3.17
2018-10-02T17:20:48.141Z,3.40
2018-10-02T17:23:19.528Z,3.53
2018-10-02T17:25:50.908Z,3.17
2018-10-02T17:28:20.955Z,3.43
2018-10-02T17:30:51.006Z,3.23
2018-10-02T17:33:21.100Z,3.33
2018-10-02T17:35:51.261Z,3.40
2018-10-02T17:38:22.544Z,3.87
2018-10-02T17:40:52.559Z,3.00
2018-10-02T17:43:22.585Z,3.80
2018-10-02T17:45:52.674Z,3.87
2018-10-02T17:48:22.708Z,2.97
2018-10-02T17:50:52.796Z,2.70
2018-10-02T17:53:22.837Z,3.03
2018-10-02T17:56:01.868Z,3.83
2018-10-02T17:58:31.908Z,2.70
2018-10-02T18:01:02.167Z,3.80
2018-10-02T18:03:33.040Z,2.93
2018-10-02T18:06:03.105Z,2.53
2018-10-02T18:08:33.162Z,3.30
2018-10-02T18:11:03.182Z,3.83
2018-10-02T18:13:33.219Z,2.97
2018-10-02T18:16:03.316Z,2.97
2018-10-02T18:18:33.328Z,2.60
2018-10-02T18:21:03.407Z,3.80
2018-10-02T18:23:33.502Z,2.60
2018-10-02T18:26:03.522Z,2.90
2018-10-02T18:28:33.519Z,2.70
2018-10-02T18:31:03.875Z,3.33
2018-10-02T18:33:33.954Z,2.83
2018-10-02T18:36:03.968Z,3.40
2018-10-02T18:38:34.097Z,3.43
2018-10-02T18:41:04.173Z,2.63
2018-10-02T18:43:34.213Z,15.23
2018-10-02T18:46:04.276Z,3.97
2018-10-02T18:48:34.283Z,2.60
2018-10-02T18:51:04.324Z,3.90
2018-10-02T18:53:35.185Z,3.03
2018-10-02T18:56:05.688Z,3.00
2018-10-02T18:58:35.687Z,2.60
2018-10-02T19:01:06.586Z,3.60
2018-10-02T19:03:36.602Z,3.20
2018-10-02T19:06:06.705Z,2.63
2018-10-02T19:08:41.991Z,3.57
2018-10-02T19:11:17.106Z,3.90
2018-10-02T19:13:47.145Z,4.13
2018-10-02T19:16:22.360Z,3.30
2018-10-02T19:18:52.475Z,3.63
2018-10-02T19:21:22.495Z,2.90
2018-10-02T19:23:52.531Z,2.97
2018-10-02T19:26:25.450Z,2.63
2018-10-02T19:28:59.329Z,2.43
2018-10-02T19:31:35.687Z,3.10
2018-10-02T19:34:05.787Z,2.73
2018-10-02T19:36:35.820Z,2.60
2018-10-02T19:39:08.599Z,2.90
2018-10-02T19:41:38.656Z,2.37
2018-10-02T19:44:08.896Z,2.70
2018-10-02T19:47:12.512Z,2.57
2018-10-02T19:49:42.556Z,2.67
2018-10-02T19:52:15.557Z,3.20
2018-10-02T19:54:46.830Z,2.47
2018-10-02T19:57:19.272Z,2.67
2018-10-02T19:59:49.465Z,2.20
2018-10-02T20:02:19.612Z,3.00
2018-10-02T20:04:49.656Z,3.00
2018-10-02T20:07:19.716Z,3.27
2018-10-02T20:09:49.849Z,5.77
2018-10-02T20:12:19.868Z,8.97
2018-10-02T20:14:49.931Z,5.33
2018-10-02T20:17:19.960Z,6.63
2018-10-02T20:19:50.004Z,7.83
2018-10-02T20:22:20.040Z,8.43
2018-10-02T20:24:50.104Z,3.30
2018-10-02T20:27:20.215Z,3.10
2018-10-02T20:29:54.585Z,3.20
2018-10-02T20:32:24.673Z,2.73
2018-10-02T20:34:54.791Z,3.17
2018-10-02T20:37:24.807Z,2.43
2018-10-02T20:39:54.840Z,3.17
2018-10-02T20:42:24.861Z,3.40
2018-10-02T20:44:54.919Z,3.43
2018-10-02T20:47:24.932Z,3.17
2018-10-02T20:49:55.141Z,3.47
2018-10-02T20:52:25.196Z,3.93
2018-10-02T20:54:55.234Z,3.83
2018-10-02T20:57:25.247Z,2.40
2018-10-02T20:59:55.338Z,3.57
2018-10-02T21:02:28.396Z,3.53
2018-10-02T21:05:02.352Z,3.13
2018-10-02T21:07:35.976Z,2.70
2018-10-02T21:10:09.176Z,2.67
2018-10-02T21:12:42.763Z,3.87
2018-10-02T21:15:15.879Z,2.87
2018-10-02T21:17:49.809Z,3.27
2018-10-02T21:20:22.914Z,3.23
2018-10-02T21:23:01.428Z,3.10
2018-10-02T21:25:39.192Z,3.10
2018-10-02T21:28:12.238Z,3.17
2018-10-02T21:30:51.053Z,3.50
2018-10-02T21:33:28.389Z,2.70
2018-10-02T21:50:45.831Z,2.90
2018-10-02T21:53:15.952Z,3.80
2018-10-02T21:55:46.086Z,2.90
2018-10-02T21:58:16.286Z,2.77
2018-10-02T22:00:46.491Z,3.43
2018-10-02T22:03:16.944Z,3.20
2018-10-02T22:05:47.127Z,2.40
2018-10-02T22:08:17.533Z,2.97
2018-10-02T22:10:47.926Z,3.13
2018-10-02T22:13:18.687Z,2.80
2018-10-02T22:15:48.870Z,3.40
2018-10-02T22:18:19.837Z,3.73
2018-10-02T22:20:50.035Z,2.83
2018-10-02T22:23:20.507Z,3.13
2018-10-02T22:25:50.825Z,3.93
2018-10-02T22:28:21.694Z,2.97
2018-10-02T22:30:52.072Z,3.60
2018-10-02T22:33:23.000Z,3.83
2018-10-02T22:35:53.394Z,3.17
2018-10-02T22:38:23.859Z,2.73
2018-10-02T22:40:54.843Z,3.50
2018-10-02T22:43:25.390Z,3.43
2018-10-02T22:45:55.742Z,3.70
2018-10-02T22:48:26.142Z,2.90
2018-10-02T22:50:56.828Z,3.13
2018-10-02T22:53:27.313Z,3.30
2018-10-02T22:55:57.795Z,3.37
2018-10-02T22:58:28.320Z,3.43
2018-10-02T23:00:58.452Z,3.03
2018-10-02T23:03:28.790Z,3.13
2018-10-02T23:05:58.948Z,2.37
2018-10-02T23:08:29.223Z,3.93
2018-10-02T23:10:59.372Z,3.40
2018-10-02T23:13:29.674Z,2.90
2018-10-02T23:15:59.813Z,3.33
2018-10-02T23:18:30.104Z,2.80
2018-10-02T23:21:00.228Z,3.07
2018-10-02T23:23:30.515Z,2.80
2018-10-02T23:26:01.493Z,2.50
2018-10-02T23:28:31.807Z,2.30
2018-10-02T23:31:01.943Z,2.83
2018-10-02T23:33:32.231Z,2.63
2018-10-02T23:36:02.390Z,2.60
2018-10-02T23:38:33.700Z,2.67
2018-10-02T23:41:03.872Z,2.53
2018-10-02T23:43:34.169Z,2.57
2018-10-02T23:46:04.334Z,2.70
2018-10-02T23:48:34.578Z,2.40
2018-10-02T23:51:04.737Z,2.30
2018-10-02T23:53:36.054Z,2.67
2018-10-02T23:56:06.174Z,2.80
2018-10-02T23:58:36.483Z,2.80
